VIAR/ATQ METAR and TAF weather

Enter ICAO airport designator
Station Type Date Time Source
VIAR METAR 2019/04/22 18:30 UTC NOAA

VIAR 221830Z 00000KT 3500 HZ FEW100 25/19 Q1006 NOSIG


Station Type Date Time Source
VIAR Decoded METAR 2019/04/22 18:30 UTC NOAA

Amritsar, India (VIAR) 31-38N 074-52E 234M
Apr 22, 2019 - 02:30 PM EDT / 2019.04.22 1830 UTC
Wind: Calm:0
Visibility: 2 mile(s):0
Sky conditions: mostly clear
Weather: haze
Temperature: 77 F (25 C)
Dew Point: 66 F (19 C)
Relative Humidity: 69%
Pressure (altimeter): 29.71 in. Hg (1006 hPa)
ob: VIAR 221830Z 00000KT 3500 HZ FEW100 25/19 Q1006 NOSIG
cycle: 18

Station Type Date Time Source
VIAR TAF 2019/04/22 18:27 UTC NOAA

TAF TAF VIAR 221701Z 2218/2324 00000KT 3500 HZ FEW100
BECMG 2300/2302 00000KT 2500 BR
BECMG 2304/2306 32008KT 5000 HZ
BECMG 2315/2317 00000KT 3000 HZ

Example: see airport list